Ultra Pacific — WDG5500 — position and weather

sailwx.info

Track history (hours):
 
Tides and Currents Weather Stations Pressure Air Temp Water Temp Dewpoint Dewpoint Depression Visibility Wind Speed Wind Dir Waves Ship Positions

Ultra Pacific

Owner: Ultra Sportfishing, Newport Beach, CA. More information available from US FCC via Universal Licensing System and Coast Guard Vessel Documentation Center.

Last reported at 2018-Jan-07 06:53 UTC. Time now 2018-Jan-19 23:44 UTC.
Position N 33°49' W 118°58'.
Warning: this ship's position is 12 days out of date.

Length 4 m.

Type: Fishing. MMSI: 367547310.

Date/timePositionNaut miles runAvg speedWind from/ knotsBaromVisibWave heightAir tempDewpointWater temp
2018-Jan-07 06:53N 33°49' W 118°58'3 7.6
2018-Jan-07 06:29N 33°51' W 119°00'4 7.7
2018-Jan-07 05:59N 33°54' W 119°03'4 7.6
2018-Jan-07 05:30N 33°57' W 119°05'4 7.9
2018-Jan-07 05:00N 34°00' W 119°08'4 8.2
2018-Jan-07 04:30N 34°04' W 119°11'4 8.4
2018-Jan-07 04:00N 34°07' W 119°14'4 8.2
2018-Jan-07 03:30N 34°11' W 119°16'4 8.0
2018-Jan-07 03:00N 34°15' W 119°17'1 1.1
2018-Jan-07 02:25N 34°14' W 119°16'0 0.0
2018-Jan-07 01:46N 34°14' W 119°16'0 0.0
2018-Jan-07 01:25N 34°14' W 119°16'0 0.0
2018-Jan-07 00:13N 34°14' W 119°16'0 0.0
2018-Jan-06 23:58N 34°14' W 119°16'0 0.0
2018-Jan-06 23:19N 34°14' W 119°16'0 0.0
2018-Jan-06 22:58N 34°14' W 119°16'0 0.0
2018-Jan-06 21:52N 34°14' W 119°16'0 0.0
2018-Jan-06 21:28N 34°14' W 119°16'0 0.0
2018-Jan-06 20:49N 34°14' W 119°16'0 0.0
2018-Jan-06 20:28N 34°14' W 119°16'0 0.0
2018-Jan-06 19:55N 34°14' W 119°16'0 0.0
2018-Jan-06 19:28N 34°14' W 119°16'0 0.0
2018-Jan-06 18:52N 34°14' W 119°16'0 0.0
2018-Jan-06 18:19N 34°14' W 119°16'0 0.0
2018-Jan-06 17:55N 34°14' W 119°16'0 0.0
2018-Jan-06 17:25N 34°14' W 119°16'0 0.0
2018-Jan-06 16:55N 34°14' W 119°16'0 0.0
2018-Jan-06 16:28N 34°14' W 119°16'0 0.0
2018-Jan-06 15:55N 34°14' W 119°16'0 0.0
2018-Jan-06 15:28N 34°14' W 119°16'0 0.0
2018-Jan-06 14:55N 34°14' W 119°16'0 0.0
2018-Jan-06 14:28N 34°14' W 119°16'0 0.0
2018-Jan-06 13:58N 34°14' W 119°16'0 0.0
2018-Jan-06 13:28N 34°14' W 119°16'0 0.0
2018-Jan-06 12:52N 34°14' W 119°16'0 0.0
2018-Jan-06 12:28N 34°14' W 119°16'0 0.0
2018-Jan-06 11:58N 34°14' W 119°16'0 0.0
2018-Jan-06 11:28N 34°14' W 119°16'0 0.0
2018-Jan-06 10:49N 34°14' W 119°16'0 0.0
2018-Jan-06 10:19N 34°14' W 119°16'0 0.0
2018-Jan-06 09:55N 34°14' W 119°16'0 0.0
2018-Jan-06 09:07N 34°14' W 119°16'0 0.0
2018-Jan-06 08:58N 34°14' W 119°16'0 0.0
2018-Jan-06 08:01N 34°14' W 119°16'0 0.0
2018-Jan-06 07:52N 34°14' W 119°16'0 0.0
2018-Jan-06 07:25N 34°14' W 119°16'0 0.0
2018-Jan-06 06:58N 34°14' W 119°16'0 0.0
2018-Jan-06 06:25N 34°14' W 119°16'0 0.0
2018-Jan-06 05:49N 34°14' W 119°16'0 0.0
2018-Jan-06 05:28N 34°14' W 119°16'0 0.0
2018-Jan-06 04:55N 34°14' W 119°16'0 0.0
2018-Jan-06 04:28N 34°14' W 119°16'0 0.0
2018-Jan-06 03:25N 34°14' W 119°16'0 0.0
2018-Jan-06 02:28N 34°14' W 119°16'0 0.0
2018-Jan-06 01:40N 34°14' W 119°16'0 0.0
2018-Jan-06 01:25N 34°14' W 119°16'0 0.0
2018-Jan-06 00:55N 34°14' W 119°16'0 0.0
2018-Jan-06 00:28N 34°14' W 119°16'0 0.0
2018-Jan-05 23:55N 34°14' W 119°16'0 0.0
2018-Jan-05 23:28N 34°14' W 119°16'0 0.0
2018-Jan-05 22:25N 34°14' W 119°16'0 0.0
2018-Jan-05 21:46N 34°14' W 119°16'0 0.0
2018-Jan-05 21:25N 34°14' W 119°16'0 0.0
2018-Jan-05 20:55N 34°14' W 119°16'0 0.0
2018-Jan-05 20:13N 34°14' W 119°16'0 0.0
2018-Jan-05 19:49N 34°14' W 119°16'0 0.0
2018-Jan-05 19:25N 34°14' W 119°16'0 0.0
2018-Jan-05 18:49N 34°14' W 119°16'0 0.0
2018-Jan-05 18:16N 34°14' W 119°16'0 0.0
2018-Jan-05 17:52N 34°14' W 119°16'0 0.0
2018-Jan-05 16:22N 34°14' W 119°16'0 0.0
2018-Jan-05 15:52N 34°14' W 119°16'0 0.0
2018-Jan-05 15:04N 34°14' W 119°16'0 0.0
2018-Jan-05 14:49N 34°14' W 119°16'0 0.0
2018-Jan-05 14:25N 34°14' W 119°16'0 0.0
2018-Jan-05 13:49N 34°14' W 119°16'0 0.0
2018-Jan-05 13:28N 34°14' W 119°16'0 0.0
2018-Jan-05 12:49N 34°14' W 119°16'0 0.0
2018-Jan-05 12:28N 34°14' W 119°16'0 0.0
2018-Jan-05 11:55N 34°14' W 119°16'0 0.0
2018-Jan-05 11:28N 34°14' W 119°16'0 0.0
2018-Jan-05 10:55N 34°14' W 119°16'0 0.0
2018-Jan-05 10:28N 34°14' W 119°16'0 0.0
2018-Jan-05 09:55N 34°14' W 119°16'0 0.0
2018-Jan-05 09:28N 34°14' W 119°16'0 0.0
2018-Jan-05 08:55N 34°14' W 119°16'0 0.0
2018-Jan-05 08:25N 34°14' W 119°16'0 0.0
2018-Jan-05 07:58N 34°14' W 119°16'0 0.0
2018-Jan-05 07:28N 34°14' W 119°16'0 0.0
2018-Jan-05 06:55N 34°14' W 119°16'0 0.0
2018-Jan-05 06:19N 34°14' W 119°16'0 0.0
2018-Jan-05 05:07N 34°14' W 119°16'0 0.0
2018-Jan-05 04:49N 34°14' W 119°16'0 0.0
2018-Jan-05 04:22N 34°14' W 119°16'0 0.0
2018-Jan-05 03:55N 34°14' W 119°16'0 0.0
2018-Jan-05 03:25N 34°14' W 119°16'0 0.0
2018-Jan-05 02:58N 34°14' W 119°16'0 0.0
2018-Jan-05 02:25N 34°14' W 119°16'0 0.0
2018-Jan-05 01:58N 34°14' W 119°16'0 0.0
2018-Jan-05 01:13N 34°14' W 119°16'0 0.0
2018-Jan-05 00:58N 34°14' W 119°16'0 0.0
2018-Jan-04 23:43N 34°14' W 119°16'0 0.0
2018-Jan-04 23:28N 34°14' W 119°16'0 0.0
2018-Jan-04 22:40N 34°14' W 119°16'0 0.0
2018-Jan-04 22:28N 34°14' W 119°16'0 0.0
2018-Jan-04 21:34N 34°14' W 119°16'0 0.0
2018-Jan-04 21:07N 34°14' W 119°16'0 0.0
2018-Jan-04 20:49N 34°14' W 119°16'0 0.0
2018-Jan-04 20:16N 34°14' W 119°16'0 0.0
2018-Jan-04 19:55N 34°14' W 119°16'0 0.0
2018-Jan-04 19:13N 34°14' W 119°16'0 0.0
2018-Jan-04 18:52N 34°14' W 119°16'0 0.0
2018-Jan-04 18:28N 34°14' W 119°16'0 0.0
2018-Jan-04 17:46N 34°14' W 119°16'0 0.0
2018-Jan-04 17:25N 34°14' W 119°16'0 0.0
2018-Jan-04 16:31N 34°14' W 119°16'0 0.0
2018-Jan-04 16:28N 34°14' W 119°16'0 0.0
2018-Jan-04 15:46N 34°14' W 119°16'0 0.0
2018-Jan-04 15:28N 34°14' W 119°16'0 0.0
2018-Jan-04 14:43N 34°14' W 119°16'0 0.0
2018-Jan-04 14:25N 34°14' W 119°16'0 0.0
2018-Jan-04 13:46N 34°14' W 119°16'0 0.0
2018-Jan-04 13:25N 34°14' W 119°16'0 0.0
2018-Jan-04 12:55N 34°14' W 119°16'0 0.0
2018-Jan-04 12:28N 34°14' W 119°16'0 0.0
2018-Jan-04 11:34N 34°14' W 119°16'0 0.0
2018-Jan-04 11:22N 34°14' W 119°16'0 0.0
2018-Jan-04 10:58N 34°14' W 119°16'0 0.0
2018-Jan-04 10:25N 34°14' W 119°16'0 0.0
2018-Jan-04 09:55N 34°14' W 119°16'0 0.0
2018-Jan-04 09:19N 34°14' W 119°16'0 0.0
2018-Jan-04 08:58N 34°14' W 119°16'0 0.0
2018-Jan-04 08:28N 34°14' W 119°16'0 0.0
2018-Jan-04 07:55N 34°14' W 119°16'0 0.0
2018-Jan-04 07:25N 34°14' W 119°16'0 0.0
2018-Jan-04 06:58N 34°14' W 119°16'0 0.0
2018-Jan-04 06:28N 34°14' W 119°16'0 0.0
2018-Jan-04 04:46N 34°14' W 119°16'0 0.0
2018-Jan-04 04:16N 34°14' W 119°16'0 0.0
2018-Jan-04 03:37N 34°14' W 119°16'0 0.0
2018-Jan-04 03:16N 34°14' W 119°16'0 0.0
2018-Jan-04 02:49N 34°14' W 119°16'0 0.0
2018-Jan-04 01:07N 34°14' W 119°16'0 0.0
2018-Jan-04 00:55N 34°14' W 119°16'0 0.0
2018-Jan-04 00:07N 34°14' W 119°16'0 0.0
2018-Jan-03 23:31N 34°14' W 119°16'0 0.0
2018-Jan-03 23:13N 34°14' W 119°16'0 0.0
2018-Jan-03 22:43N 34°14' W 119°16'0 0.0
2018-Jan-03 22:25N 34°14' W 119°16'0 0.0
2018-Jan-03 21:55N 34°14' W 119°16'0 0.0
2018-Jan-03 21:19N 34°14' W 119°16'0 0.0
2018-Jan-03 20:43N 34°14' W 119°16'0 0.0
2018-Jan-03 20:01N 34°14' W 119°16'0 0.0
2018-Jan-03 19:55N 34°14' W 119°16'0 0.0
2018-Jan-03 16:22N 34°14' W 119°16'0 0.0
2018-Jan-03 15:31N 34°14' W 119°16'0 0.0
2018-Jan-03 15:28N 34°14' W 119°16'0 0.0
2018-Jan-03 14:58N 34°14' W 119°16'0 0.0
2018-Jan-03 14:10N 34°14' W 119°16'0 0.0
2018-Jan-03 13:49N 34°14' W 119°16'0 0.0
2018-Jan-03 13:28N 34°14' W 119°16'0 0.0
2018-Jan-03 12:46N 34°14' W 119°16'0 0.0
2018-Jan-03 12:25N 34°14' W 119°16'0 0.0
2018-Jan-03 11:43N 34°14' W 119°16'0 0.0
2018-Jan-03 11:25N 34°14' W 119°16'0 0.0
2018-Jan-03 10:49N 34°14' W 119°16'0 0.0
2018-Jan-03 10:25N 34°14' W 119°16'0 0.0
2018-Jan-03 09:58N 34°14' W 119°16'0 0.0
2018-Jan-03 09:25N 34°14' W 119°16'0 0.0
2018-Jan-03 08:52N 34°14' W 119°16'0 0.0
2018-Jan-03 08:19N 34°14' W 119°16'0 0.0
2018-Jan-03 07:46N 34°14' W 119°16'0 0.0
2018-Jan-03 07:28N 34°14' W 119°16'0 0.0
2018-Jan-03 06:58N 34°14' W 119°16'0 0.0
2018-Jan-03 06:19N 34°14' W 119°16'0 0.0
2018-Jan-03 05:55N 34°14' W 119°16'0 0.0
2018-Jan-03 05:25N 34°14' W 119°16'0 0.0
2018-Jan-03 04:55N 34°14' W 119°16'0 0.0
2018-Jan-03 04:28N 34°14' W 119°16'0 0.0
2018-Jan-03 01:46N 34°14' W 119°16'0 0.0
2018-Jan-02 21:45N 34°14' W 119°16'1 1.9
2018-Jan-02 21:29N 34°15' W 119°16'6 9.5
2018-Jan-02 20:54N 34°13' W 119°23'4 9.0
2018-Jan-02 20:30N 34°12' W 119°27'5 8.8
2018-Jan-02 19:56N 34°11' W 119°33'4 8.3
2018-Jan-02 19:30N 34°10' W 119°37'5 8.7
2018-Jan-02 18:54N 34°08' W 119°43'3 8.9
2018-Jan-02 18:30N 34°07' W 119°47'5 9.0
2018-Jan-02 18:00N 34°06' W 119°52'6 8.3
2018-Jan-02 17:20N 34°03' W 119°58'32 1.3
2018-Jan-01 17:33N 34°10' W 119°21'1 9.1
2018-Jan-01 17:28N 34°11' W 119°20'5 1.1
2018-Jan-01 12:48N 34°14' W 119°16'0 0.0
2017-Dec-31 19:57N 34°14' W 119°16'0 0.0
2017-Dec-31 19:27N 34°14' W 119°16'0 0.0
2017-Dec-31 18:57N 34°14' W 119°16'0 0.0
2017-Dec-31 11:57N 34°14' W 119°16'0 0.0
2017-Dec-31 04:33N 34°14' W 119°16'0 0.1
2017-Dec-31 04:30N 34°14' W 119°16'0 0.0
2017-Dec-31 01:12N 34°14' W 119°16'0 0.0
2017-Dec-30 23:54N 34°14' W 119°16'0 0.0
2017-Dec-30 23:03N 34°14' W 119°16'0 0.0
2017-Dec-30 23:00N 34°14' W 119°16'0 0.0
2017-Dec-30 22:30N 34°14' W 119°16'0 0.0
2017-Dec-30 21:51N 34°14' W 119°16'0 0.0
2017-Dec-30 21:30N 34°14' W 119°16'0 0.0
2017-Dec-30 20:30N 34°14' W 119°16'0 0.0
2017-Dec-30 19:54N 34°14' W 119°16'0 0.0
2017-Dec-30 18:39N 34°14' W 119°16'0 0.0
2017-Dec-30 18:30N 34°14' W 119°16'0 0.0
2017-Dec-30 11:09N 34°14' W 119°16'0 0.0
2017-Dec-30 04:48N 34°14' W 119°16'0 0.0
2017-Dec-30 00:54N 34°14' W 119°16'0 0.0
2017-Dec-30 00:21N 34°14' W 119°16'0 0.0
2017-Dec-29 21:57N 34°14' W 119°16'0 0.0
2017-Dec-29 21:30N 34°14' W 119°16'0 0.0
2017-Dec-29 20:54N 34°14' W 119°16'0 0.0
2017-Dec-29 20:24N 34°14' W 119°16'0 0.0
2017-Dec-29 19:54N 34°14' W 119°16'0 0.0
2017-Dec-29 19:30N 34°14' W 119°16'0 0.0
2017-Dec-29 19:00N 34°14' W 119°16'0 0.0
2017-Dec-29 18:18N 34°14' W 119°16'0 0.0
2017-Dec-29 17:57N 34°14' W 119°16'0 0.0
2017-Dec-29 17:24N 34°14' W 119°16'0 0.0
2017-Dec-29 17:00N 34°14' W 119°16'0 0.0
2017-Dec-29 16:30N 34°14' W 119°16'0 0.0
2017-Dec-29 15:59N 34°14' W 119°16'0 0.0
2017-Dec-29 15:30N 34°14' W 119°16'0 0.9
2017-Dec-29 15:00N 34°15' W 119°16'4 9.1
2017-Dec-29 14:30N 34°13' W 119°21'4 8.9
2017-Dec-29 14:00N 34°11' W 119°26'6 8.7
2017-Dec-29 13:18N 34°09' W 119°33'3 9.0
2017-Dec-29 12:59N 34°08' W 119°36'4 8.9
2017-Dec-29 12:29N 34°06' W 119°41'  
Track history (hours):
 
Tides and Currents Weather Stations Pressure Air Temp Water Temp Dewpoint Dewpoint Depression Visibility Wind Speed Wind Dir Waves Ship Positions

Ultra Pacific

Owner: Ultra Sportfishing, Newport Beach, CA. More information available from US FCC via Universal Licensing System and Coast Guard Vessel Documentation Center.

Last reported at 2018-Jan-07 06:53 UTC. Time now 2018-Jan-19 23:44 UTC.
Position N 33°49' W 118°58'.
Warning: this ship's position is 12 days out of date.

Length 4 m.

Type: Fishing. MMSI: 367547310.

Date/timePositionNaut miles runAvg speedWind from/ knotsBaromVisibWave heightAir tempDewpointWater temp
2018-Jan-07 06:53N 33°49' W 118°58'3 7.6
2018-Jan-07 06:29N 33°51' W 119°00'4 7.7
2018-Jan-07 05:59N 33°54' W 119°03'4 7.6
2018-Jan-07 05:30N 33°57' W 119°05'4 7.9
2018-Jan-07 05:00N 34°00' W 119°08'4 8.2
2018-Jan-07 04:30N 34°04' W 119°11'4 8.4
2018-Jan-07 04:00N 34°07' W 119°14'4 8.2
2018-Jan-07 03:30N 34°11' W 119°16'4 8.0
2018-Jan-07 03:00N 34°15' W 119°17'1 1.1
2018-Jan-07 02:25N 34°14' W 119°16'0 0.0
2018-Jan-07 01:46N 34°14' W 119°16'0 0.0
2018-Jan-07 01:25N 34°14' W 119°16'0 0.0
2018-Jan-07 00:13N 34°14' W 119°16'0 0.0
2018-Jan-06 23:58N 34°14' W 119°16'0 0.0
2018-Jan-06 23:19N 34°14' W 119°16'0 0.0
2018-Jan-06 22:58N 34°14' W 119°16'0 0.0
2018-Jan-06 21:52N 34°14' W 119°16'0 0.0
2018-Jan-06 21:28N 34°14' W 119°16'0 0.0
2018-Jan-06 20:49N 34°14' W 119°16'0 0.0
2018-Jan-06 20:28N 34°14' W 119°16'0 0.0
2018-Jan-06 19:55N 34°14' W 119°16'0 0.0
2018-Jan-06 19:28N 34°14' W 119°16'0 0.0
2018-Jan-06 18:52N 34°14' W 119°16'0 0.0
2018-Jan-06 18:19N 34°14' W 119°16'0 0.0
2018-Jan-06 17:55N 34°14' W 119°16'0 0.0
2018-Jan-06 17:25N 34°14' W 119°16'0 0.0
2018-Jan-06 16:55N 34°14' W 119°16'0 0.0
2018-Jan-06 16:28N 34°14' W 119°16'0 0.0
2018-Jan-06 15:55N 34°14' W 119°16'0 0.0
2018-Jan-06 15:28N 34°14' W 119°16'0 0.0
2018-Jan-06 14:55N 34°14' W 119°16'0 0.0
2018-Jan-06 14:28N 34°14' W 119°16'0 0.0
2018-Jan-06 13:58N 34°14' W 119°16'0 0.0
2018-Jan-06 13:28N 34°14' W 119°16'0 0.0
2018-Jan-06 12:52N 34°14' W 119°16'0 0.0
2018-Jan-06 12:28N 34°14' W 119°16'0 0.0
2018-Jan-06 11:58N 34°14' W 119°16'0 0.0
2018-Jan-06 11:28N 34°14' W 119°16'0 0.0
2018-Jan-06 10:49N 34°14' W 119°16'0 0.0
2018-Jan-06 10:19N 34°14' W 119°16'0 0.0
2018-Jan-06 09:55N 34°14' W 119°16'0 0.0
2018-Jan-06 09:07N 34°14' W 119°16'0 0.0
2018-Jan-06 08:58N 34°14' W 119°16'0 0.0
2018-Jan-06 08:01N 34°14' W 119°16'0 0.0
2018-Jan-06 07:52N 34°14' W 119°16'0 0.0
2018-Jan-06 07:25N 34°14' W 119°16'0 0.0
2018-Jan-06 06:58N 34°14' W 119°16'0 0.0
2018-Jan-06 06:25N 34°14' W 119°16'0 0.0
2018-Jan-06 05:49N 34°14' W 119°16'0 0.0
2018-Jan-06 05:28N 34°14' W 119°16'0 0.0
2018-Jan-06 04:55N 34°14' W 119°16'0 0.0
2018-Jan-06 04:28N 34°14' W 119°16'0 0.0
2018-Jan-06 03:25N 34°14' W 119°16'0 0.0
2018-Jan-06 02:28N 34°14' W 119°16'0 0.0
2018-Jan-06 01:40N 34°14' W 119°16'0 0.0
2018-Jan-06 01:25N 34°14' W 119°16'0 0.0
2018-Jan-06 00:55N 34°14' W 119°16'0 0.0
2018-Jan-06 00:28N 34°14' W 119°16'0 0.0
2018-Jan-05 23:55N 34°14' W 119°16'0 0.0
2018-Jan-05 23:28N 34°14' W 119°16'0 0.0
2018-Jan-05 22:25N 34°14' W 119°16'0 0.0
2018-Jan-05 21:46N 34°14' W 119°16'0 0.0
2018-Jan-05 21:25N 34°14' W 119°16'0 0.0
2018-Jan-05 20:55N 34°14' W 119°16'0 0.0
2018-Jan-05 20:13N 34°14' W 119°16'0 0.0
2018-Jan-05 19:49N 34°14' W 119°16'0 0.0
2018-Jan-05 19:25N 34°14' W 119°16'0 0.0
2018-Jan-05 18:49N 34°14' W 119°16'0 0.0
2018-Jan-05 18:16N 34°14' W 119°16'0 0.0
2018-Jan-05 17:52N 34°14' W 119°16'0 0.0
2018-Jan-05 16:22N 34°14' W 119°16'0 0.0
2018-Jan-05 15:52N 34°14' W 119°16'0 0.0
2018-Jan-05 15:04N 34°14' W 119°16'0 0.0
2018-Jan-05 14:49N 34°14' W 119°16'0 0.0
2018-Jan-05 14:25N 34°14' W 119°16'0 0.0
2018-Jan-05 13:49N 34°14' W 119°16'0 0.0
2018-Jan-05 13:28N 34°14' W 119°16'0 0.0
2018-Jan-05 12:49N 34°14' W 119°16'0 0.0
2018-Jan-05 12:28N 34°14' W 119°16'0 0.0
2018-Jan-05 11:55N 34°14' W 119°16'0 0.0
2018-Jan-05 11:28N 34°14' W 119°16'0 0.0
2018-Jan-05 10:55N 34°14' W 119°16'0 0.0
2018-Jan-05 10:28N 34°14' W 119°16'0 0.0
2018-Jan-05 09:55N 34°14' W 119°16'0 0.0
2018-Jan-05 09:28N 34°14' W 119°16'0 0.0
2018-Jan-05 08:55N 34°14' W 119°16'0 0.0
2018-Jan-05 08:25N 34°14' W 119°16'0 0.0
2018-Jan-05 07:58N 34°14' W 119°16'0 0.0
2018-Jan-05 07:28N 34°14' W 119°16'0 0.0
2018-Jan-05 06:55N 34°14' W 119°16'0 0.0
2018-Jan-05 06:19N 34°14' W 119°16'0 0.0
2018-Jan-05 05:07N 34°14' W 119°16'0 0.0
2018-Jan-05 04:49N 34°14' W 119°16'0 0.0
2018-Jan-05 04:22N 34°14' W 119°16'0 0.0
2018-Jan-05 03:55N 34°14' W 119°16'0 0.0
2018-Jan-05 03:25N 34°14' W 119°16'0 0.0
2018-Jan-05 02:58N 34°14' W 119°16'0 0.0
2018-Jan-05 02:25N 34°14' W 119°16'0 0.0
2018-Jan-05 01:58N 34°14' W 119°16'0 0.0
2018-Jan-05 01:13N 34°14' W 119°16'0 0.0
2018-Jan-05 00:58N 34°14' W 119°16'0 0.0
2018-Jan-04 23:43N 34°14' W 119°16'0 0.0
2018-Jan-04 23:28N 34°14' W 119°16'0 0.0
2018-Jan-04 22:40N 34°14' W 119°16'0 0.0
2018-Jan-04 22:28N 34°14' W 119°16'0 0.0
2018-Jan-04 21:34N 34°14' W 119°16'0 0.0
2018-Jan-04 21:07N 34°14' W 119°16'0 0.0
2018-Jan-04 20:49N 34°14' W 119°16'0 0.0
2018-Jan-04 20:16N 34°14' W 119°16'0 0.0
2018-Jan-04 19:55N 34°14' W 119°16'0 0.0
2018-Jan-04 19:13N 34°14' W 119°16'0 0.0
2018-Jan-04 18:52N 34°14' W 119°16'0 0.0
2018-Jan-04 18:28N 34°14' W 119°16'0 0.0
2018-Jan-04 17:46N 34°14' W 119°16'0 0.0
2018-Jan-04 17:25N 34°14' W 119°16'0 0.0
2018-Jan-04 16:31N 34°14' W 119°16'0 0.0
2018-Jan-04 16:28N 34°14' W 119°16'0 0.0
2018-Jan-04 15:46N 34°14' W 119°16'0 0.0
2018-Jan-04 15:28N 34°14' W 119°16'0 0.0
2018-Jan-04 14:43N 34°14' W 119°16'0 0.0
2018-Jan-04 14:25N 34°14' W 119°16'0 0.0
2018-Jan-04 13:46N 34°14' W 119°16'0 0.0
2018-Jan-04 13:25N 34°14' W 119°16'0 0.0
2018-Jan-04 12:55N 34°14' W 119°16'0 0.0
2018-Jan-04 12:28N 34°14' W 119°16'0 0.0
2018-Jan-04 11:34N 34°14' W 119°16'0 0.0
2018-Jan-04 11:22N 34°14' W 119°16'0 0.0
2018-Jan-04 10:58N 34°14' W 119°16'0 0.0
2018-Jan-04 10:25N 34°14' W 119°16'0 0.0
2018-Jan-04 09:55N 34°14' W 119°16'0 0.0
2018-Jan-04 09:19N 34°14' W 119°16'0 0.0
2018-Jan-04 08:58N 34°14' W 119°16'0 0.0
2018-Jan-04 08:28N 34°14' W 119°16'0 0.0
2018-Jan-04 07:55N 34°14' W 119°16'0 0.0
2018-Jan-04 07:25N 34°14' W 119°16'0 0.0
2018-Jan-04 06:58N 34°14' W 119°16'0 0.0
2018-Jan-04 06:28N 34°14' W 119°16'0 0.0
2018-Jan-04 04:46N 34°14' W 119°16'0 0.0
2018-Jan-04 04:16N 34°14' W 119°16'0 0.0
2018-Jan-04 03:37N 34°14' W 119°16'0 0.0
2018-Jan-04 03:16N 34°14' W 119°16'0 0.0
2018-Jan-04 02:49N 34°14' W 119°16'0 0.0
2018-Jan-04 01:07N 34°14' W 119°16'0 0.0
2018-Jan-04 00:55N 34°14' W 119°16'0 0.0
2018-Jan-04 00:07N 34°14' W 119°16'0 0.0
2018-Jan-03 23:31N 34°14' W 119°16'0 0.0
2018-Jan-03 23:13N 34°14' W 119°16'0 0.0
2018-Jan-03 22:43N 34°14' W 119°16'0 0.0
2018-Jan-03 22:25N 34°14' W 119°16'0 0.0
2018-Jan-03 21:55N 34°14' W 119°16'0 0.0
2018-Jan-03 21:19N 34°14' W 119°16'0 0.0
2018-Jan-03 20:43N 34°14' W 119°16'0 0.0
2018-Jan-03 20:01N 34°14' W 119°16'0 0.0
2018-Jan-03 19:55N 34°14' W 119°16'0 0.0
2018-Jan-03 16:22N 34°14' W 119°16'0 0.0
2018-Jan-03 15:31N 34°14' W 119°16'0 0.0
2018-Jan-03 15:28N 34°14' W 119°16'0 0.0
2018-Jan-03 14:58N 34°14' W 119°16'0 0.0
2018-Jan-03 14:10N 34°14' W 119°16'0 0.0
2018-Jan-03 13:49N 34°14' W 119°16'0 0.0
2018-Jan-03 13:28N 34°14' W 119°16'0 0.0
2018-Jan-03 12:46N 34°14' W 119°16'0 0.0
2018-Jan-03 12:25N 34°14' W 119°16'0 0.0
2018-Jan-03 11:43N 34°14' W 119°16'0 0.0
2018-Jan-03 11:25N 34°14' W 119°16'0 0.0
2018-Jan-03 10:49N 34°14' W 119°16'0 0.0
2018-Jan-03 10:25N 34°14' W 119°16'0 0.0
2018-Jan-03 09:58N 34°14' W 119°16'0 0.0
2018-Jan-03 09:25N 34°14' W 119°16'0 0.0
2018-Jan-03 08:52N 34°14' W 119°16'0 0.0
2018-Jan-03 08:19N 34°14' W 119°16'0 0.0
2018-Jan-03 07:46N 34°14' W 119°16'0 0.0
2018-Jan-03 07:28N 34°14' W 119°16'0 0.0
2018-Jan-03 06:58N 34°14' W 119°16'0 0.0
2018-Jan-03 06:19N 34°14' W 119°16'0 0.0
2018-Jan-03 05:55N 34°14' W 119°16'0 0.0
2018-Jan-03 05:25N 34°14' W 119°16'0 0.0
2018-Jan-03 04:55N 34°14' W 119°16'0 0.0
2018-Jan-03 04:28N 34°14' W 119°16'0 0.0
2018-Jan-03 01:46N 34°14' W 119°16'0 0.0
2018-Jan-02 21:45N 34°14' W 119°16'1 1.9
2018-Jan-02 21:29N 34°15' W 119°16'6 9.5
2018-Jan-02 20:54N 34°13' W 119°23'4 9.0
2018-Jan-02 20:30N 34°12' W 119°27'5 8.8
2018-Jan-02 19:56N 34°11' W 119°33'4 8.3
2018-Jan-02 19:30N 34°10' W 119°37'5 8.7
2018-Jan-02 18:54N 34°08' W 119°43'3 8.9
2018-Jan-02 18:30N 34°07' W 119°47'5 9.0
2018-Jan-02 18:00N 34°06' W 119°52'6 8.3
2018-Jan-02 17:20N 34°03' W 119°58'32 1.3
2018-Jan-01 17:33N 34°10' W 119°21'1 9.1
2018-Jan-01 17:28N 34°11' W 119°20'5 1.1
2018-Jan-01 12:48N 34°14' W 119°16'0 0.0
2017-Dec-31 19:57N 34°14' W 119°16'0 0.0
2017-Dec-31 19:27N 34°14' W 119°16'0 0.0
2017-Dec-31 18:57N 34°14' W 119°16'0 0.0
2017-Dec-31 11:57N 34°14' W 119°16'0 0.0
2017-Dec-31 04:33N 34°14' W 119°16'0 0.1
2017-Dec-31 04:30N 34°14' W 119°16'0 0.0
2017-Dec-31 01:12N 34°14' W 119°16'0 0.0
2017-Dec-30 23:54N 34°14' W 119°16'0 0.0
2017-Dec-30 23:03N 34°14' W 119°16'0 0.0
2017-Dec-30 23:00N 34°14' W 119°16'0 0.0
2017-Dec-30 22:30N 34°14' W 119°16'0 0.0
2017-Dec-30 21:51N 34°14' W 119°16'0 0.0
2017-Dec-30 21:30N 34°14' W 119°16'0 0.0
2017-Dec-30 20:30N 34°14' W 119°16'0 0.0
2017-Dec-30 19:54N 34°14' W 119°16'0 0.0
2017-Dec-30 18:39N 34°14' W 119°16'0 0.0
2017-Dec-30 18:30N 34°14' W 119°16'0 0.0
2017-Dec-30 11:09N 34°14' W 119°16'0 0.0
2017-Dec-30 04:48N 34°14' W 119°16'0 0.0
2017-Dec-30 00:54N 34°14' W 119°16'0 0.0
2017-Dec-30 00:21N 34°14' W 119°16'0 0.0
2017-Dec-29 21:57N 34°14' W 119°16'0 0.0
2017-Dec-29 21:30N 34°14' W 119°16'0 0.0
2017-Dec-29 20:54N 34°14' W 119°16'0 0.0
2017-Dec-29 20:24N 34°14' W 119°16'0 0.0
2017-Dec-29 19:54N 34°14' W 119°16'0 0.0
2017-Dec-29 19:30N 34°14' W 119°16'0 0.0
2017-Dec-29 19:00N 34°14' W 119°16'0 0.0
2017-Dec-29 18:18N 34°14' W 119°16'0 0.0
2017-Dec-29 17:57N 34°14' W 119°16'0 0.0
2017-Dec-29 17:24N 34°14' W 119°16'0 0.0
2017-Dec-29 17:00N 34°14' W 119°16'0 0.0
2017-Dec-29 16:30N 34°14' W 119°16'0 0.0
2017-Dec-29 15:59N 34°14' W 119°16'0 0.0
2017-Dec-29 15:30N 34°14' W 119°16'0 0.9
2017-Dec-29 15:00N 34°15' W 119°16'4 9.1
2017-Dec-29 14:30N 34°13' W 119°21'4 8.9
2017-Dec-29 14:00N 34°11' W 119°26'6 8.7
2017-Dec-29 13:18N 34°09' W 119°33'3 9.0
2017-Dec-29 12:59N 34°08' W 119°36'4 8.9
2017-Dec-29 12:29N 34°06' W 119°41'  

Dump ship's entire track history